sensor_id;sensor_type;location;lat;lon;timestamp;P1;durP1;ratioP1;P2;durP2;ratioP2
27847;SDS011;15212;48.830;8.730;2023-04-28T00:01:24;9.55;;;4.28;;
27847;SDS011;15212;48.830;8.730;2023-04-28T00:03:52;8.25;;;3.70;;
27847;SDS011;15212;48.830;8.730;2023-04-28T00:06:22;8.68;;;3.62;;
27847;SDS011;15212;48.830;8.730;2023-04-28T00:08:50;8.15;;;3.98;;
27847;SDS011;15212;48.830;8.730;2023-04-28T00:11:19;6.65;;;3.60;;
27847;SDS011;15212;48.830;8.730;2023-04-28T00:13:47;9.93;;;3.67;;
27847;SDS011;15212;48.830;8.730;2023-04-28T00:16:16;8.38;;;3.50;;
27847;SDS011;15212;48.830;8.730;2023-04-28T00:18:44;7.53;;;3.70;;
27847;SDS011;15212;48.830;8.730;2023-04-28T00:21:13;6.97;;;3.58;;
27847;SDS011;15212;48.830;8.730;2023-04-28T00:23:42;12.35;;;3.83;;
27847;SDS011;15212;48.830;8.730;2023-04-28T00:26:11;7.58;;;3.85;;
27847;SDS011;15212;48.830;8.730;2023-04-28T00:28:39;6.45;;;3.70;;
27847;SDS011;15212;48.830;8.730;2023-04-28T00:31:11;8.13;;;3.22;;
27847;SDS011;15212;48.830;8.730;2023-04-28T00:33:41;6.03;;;3.40;;
27847;SDS011;15212;48.830;8.730;2023-04-28T00:36:10;7.37;;;3.70;;
27847;SDS011;15212;48.830;8.730;2023-04-28T00:38:38;9.78;;;4.10;;
27847;SDS011;15212;48.830;8.730;2023-04-28T00:41:08;7.90;;;3.67;;
27847;SDS011;15212;48.830;8.730;2023-04-28T00:43:49;7.08;;;3.55;;
27847;SDS011;15212;48.830;8.730;2023-04-28T00:46:21;7.17;;;3.72;;
27847;SDS011;15212;48.830;8.730;2023-04-28T00:48:57;8.60;;;3.60;;
27847;SDS011;15212;48.830;8.730;2023-04-28T00:51:25;5.55;;;2.85;;
27847;SDS011;15212;48.830;8.730;2023-04-28T00:53:53;6.10;;;3.00;;
27847;SDS011;15212;48.830;8.730;2023-04-28T00:56:23;7.15;;;3.15;;
27847;SDS011;15212;48.830;8.730;2023-04-28T00:58:56;9.13;;;2.98;;
27847;SDS011;15212;48.830;8.730;2023-04-28T01:01:24;5.62;;;3.00;;
27847;SDS011;15212;48.830;8.730;2023-04-28T01:03:53;6.10;;;3.10;;
27847;SDS011;15212;48.830;8.730;2023-04-28T01:06:21;6.60;;;3.27;;
27847;SDS011;15212;48.830;8.730;2023-04-28T01:08:49;4.47;;;2.95;;
27847;SDS011;15212;48.830;8.730;2023-04-28T01:11:18;7.40;;;2.77;;
27847;SDS011;15212;48.830;8.730;2023-04-28T01:13:47;6.05;;;2.90;;
27847;SDS011;15212;48.830;8.730;2023-04-28T01:16:15;5.15;;;2.70;;
27847;SDS011;15212;48.830;8.730;2023-04-28T01:18:45;5.12;;;2.70;;
27847;SDS011;15212;48.830;8.730;2023-04-28T01:21:14;5.92;;;2.75;;
27847;SDS011;15212;48.830;8.730;2023-04-28T01:23:57;6.28;;;3.30;;
27847;SDS011;15212;48.830;8.730;2023-04-28T01:26:26;6.17;;;2.80;;
27847;SDS011;15212;48.830;8.730;2023-04-28T01:28:55;4.67;;;2.80;;
27847;SDS011;15212;48.830;8.730;2023-04-28T01:31:23;8.75;;;3.02;;
27847;SDS011;15212;48.830;8.730;2023-04-28T01:33:51;5.58;;;2.67;;
27847;SDS011;15212;48.830;8.730;2023-04-28T01:36:20;4.53;;;2.60;;
27847;SDS011;15212;48.830;8.730;2023-04-28T01:38:49;4.70;;;2.55;;
27847;SDS011;15212;48.830;8.730;2023-04-28T01:41:17;9.18;;;3.25;;
27847;SDS011;15212;48.830;8.730;2023-04-28T01:43:45;4.80;;;2.72;;
27847;SDS011;15212;48.830;8.730;2023-04-28T01:46:14;8.10;;;3.10;;
27847;SDS011;15212;48.830;8.730;2023-04-28T01:48:42;6.10;;;3.02;;
27847;SDS011;15212;48.830;8.730;2023-04-28T01:51:11;6.10;;;2.80;;
27847;SDS011;15212;48.830;8.730;2023-04-28T01:53:39;5.28;;;2.50;;
27847;SDS011;15212;48.830;8.730;2023-04-28T01:56:08;6.20;;;3.05;;
27847;SDS011;15212;48.830;8.730;2023-04-28T01:58:36;5.90;;;2.52;;
27847;SDS011;15212;48.830;8.730;2023-04-28T02:01:04;6.67;;;2.80;;
27847;SDS011;15212;48.830;8.730;2023-04-28T02:03:33;5.00;;;2.83;;
27847;SDS011;15212;48.830;8.730;2023-04-28T02:06:01;5.25;;;2.92;;
27847;SDS011;15212;48.830;8.730;2023-04-28T02:08:29;5.85;;;3.00;;
27847;SDS011;15212;48.830;8.730;2023-04-28T02:10:58;5.95;;;3.02;;
27847;SDS011;15212;48.830;8.730;2023-04-28T02:13:28;8.35;;;2.80;;
27847;SDS011;15212;48.830;8.730;2023-04-28T02:15:59;8.78;;;3.00;;
27847;SDS011;15212;48.830;8.730;2023-04-28T02:18:27;4.33;;;2.83;;
27847;SDS011;15212;48.830;8.730;2023-04-28T02:20:56;5.25;;;2.50;;
27847;SDS011;15212;48.830;8.730;2023-04-28T02:23:24;4.28;;;2.55;;
27847;SDS011;15212;48.830;8.730;2023-04-28T02:25:59;7.03;;;2.70;;
27847;SDS011;15212;48.830;8.730;2023-04-28T02:28:28;6.45;;;2.72;;
27847;SDS011;15212;48.830;8.730;2023-04-28T02:33:44;6.25;;;2.85;;
27847;SDS011;15212;48.830;8.730;2023-04-28T02:36:13;5.87;;;2.77;;
27847;SDS011;15212;48.830;8.730;2023-04-28T02:38:41;8.08;;;3.08;;
27847;SDS011;15212;48.830;8.730;2023-04-28T02:41:10;5.87;;;2.55;;
27847;SDS011;15212;48.830;8.730;2023-04-28T02:43:39;5.95;;;3.08;;
27847;SDS011;15212;48.830;8.730;2023-04-28T02:46:08;4.20;;;2.47;;
27847;SDS011;15212;48.830;8.730;2023-04-28T02:48:36;5.12;;;2.80;;
27847;SDS011;15212;48.830;8.730;2023-04-28T02:51:05;4.75;;;2.80;;
27847;SDS011;15212;48.830;8.730;2023-04-28T02:53:33;4.85;;;2.60;;
27847;SDS011;15212;48.830;8.730;2023-04-28T02:56:02;4.30;;;2.85;;
27847;SDS011;15212;48.830;8.730;2023-04-28T02:58:31;7.45;;;2.70;;
27847;SDS011;15212;48.830;8.730;2023-04-28T03:00:59;5.60;;;2.65;;
27847;SDS011;15212;48.830;8.730;2023-04-28T03:03:27;5.45;;;2.52;;
27847;SDS011;15212;48.830;8.730;2023-04-28T03:05:56;8.90;;;3.00;;
27847;SDS011;15212;48.830;8.730;2023-04-28T03:08:24;3.90;;;2.62;;
27847;SDS011;15212;48.830;8.730;2023-04-28T03:10:53;4.17;;;2.33;;
27847;SDS011;15212;48.830;8.730;2023-04-28T03:13:21;7.33;;;2.47;;
27847;SDS011;15212;48.830;8.730;2023-04-28T03:15:50;5.03;;;2.77;;
27847;SDS011;15212;48.830;8.730;2023-04-28T03:18:18;5.37;;;2.72;;
27847;SDS011;15212;48.830;8.730;2023-04-28T03:20:47;3.65;;;2.35;;
27847;SDS011;15212;48.830;8.730;2023-04-28T03:23:16;4.53;;;2.62;;
27847;SDS011;15212;48.830;8.730;2023-04-28T03:25:44;5.42;;;2.60;;
27847;SDS011;15212;48.830;8.730;2023-04-28T03:28:13;4.35;;;2.45;;
27847;SDS011;15212;48.830;8.730;2023-04-28T03:30:41;10.25;;;2.67;;
27847;SDS011;15212;48.830;8.730;2023-04-28T03:33:10;5.35;;;2.85;;
27847;SDS011;15212;48.830;8.730;2023-04-28T03:35:38;5.00;;;2.77;;
27847;SDS011;15212;48.830;8.730;2023-04-28T03:38:06;4.47;;;2.47;;
27847;SDS011;15212;48.830;8.730;2023-04-28T03:40:35;4.47;;;2.72;;
27847;SDS011;15212;48.830;8.730;2023-04-28T03:43:03;6.50;;;2.50;;
27847;SDS011;15212;48.830;8.730;2023-04-28T03:45:32;5.85;;;2.50;;
27847;SDS011;15212;48.830;8.730;2023-04-28T03:48:00;6.12;;;2.52;;
27847;SDS011;15212;48.830;8.730;2023-04-28T03:50:29;5.70;;;2.60;;
27847;SDS011;15212;48.830;8.730;2023-04-28T03:52:57;5.15;;;2.72;;
27847;SDS011;15212;48.830;8.730;2023-04-28T03:55:25;7.00;;;3.12;;
27847;SDS011;15212;48.830;8.730;2023-04-28T03:57:54;6.55;;;2.22;;
27847;SDS011;15212;48.830;8.730;2023-04-28T04:00:22;6.15;;;2.37;;
27847;SDS011;15212;48.830;8.730;2023-04-28T04:02:51;6.40;;;2.77;;
27847;SDS011;15212;48.830;8.730;2023-04-28T04:05:19;5.15;;;2.37;;
27847;SDS011;15212;48.830;8.730;2023-04-28T04:07:47;5.72;;;2.52;;
27847;SDS011;15212;48.830;8.730;2023-04-28T04:10:16;4.55;;;2.55;;
27847;SDS011;15212;48.830;8.730;2023-04-28T04:12:44;5.10;;;2.65;;
27847;SDS011;15212;48.830;8.730;2023-04-28T04:15:13;6.65;;;2.92;;
27847;SDS011;15212;48.830;8.730;2023-04-28T04:17:41;4.08;;;2.50;;
27847;SDS011;15212;48.830;8.730;2023-04-28T04:20:09;7.03;;;2.70;;
27847;SDS011;15212;48.830;8.730;2023-04-28T04:22:38;5.65;;;2.62;;
27847;SDS011;15212;48.830;8.730;2023-04-28T04:25:06;5.22;;;2.67;;
27847;SDS011;15212;48.830;8.730;2023-04-28T04:27:35;6.10;;;2.80;;
27847;SDS011;15212;48.830;8.730;2023-04-28T04:30:03;5.67;;;2.60;;
27847;SDS011;15212;48.830;8.730;2023-04-28T04:32:33;3.65;;;2.80;;
27847;SDS011;15212;48.830;8.730;2023-04-28T04:35:02;5.12;;;2.60;;
27847;SDS011;15212;48.830;8.730;2023-04-28T04:37:30;5.03;;;2.70;;
27847;SDS011;15212;48.830;8.730;2023-04-28T04:39:59;4.75;;;3.00;;
27847;SDS011;15212;48.830;8.730;2023-04-28T04:42:28;3.98;;;2.60;;
27847;SDS011;15212;48.830;8.730;2023-04-28T04:44:56;4.58;;;2.87;;
27847;SDS011;15212;48.830;8.730;2023-04-28T04:47:25;4.30;;;2.70;;
27847;SDS011;15212;48.830;8.730;2023-04-28T04:49:53;7.35;;;2.80;;
27847;SDS011;15212;48.830;8.730;2023-04-28T04:52:21;7.78;;;3.05;;
27847;SDS011;15212;48.830;8.730;2023-04-28T04:54:50;7.00;;;2.98;;
27847;SDS011;15212;48.830;8.730;2023-04-28T04:57:18;5.60;;;2.90;;
27847;SDS011;15212;48.830;8.730;2023-04-28T04:59:47;5.50;;;2.90;;
27847;SDS011;15212;48.830;8.730;2023-04-28T05:02:16;4.55;;;2.58;;
27847;SDS011;15212;48.830;8.730;2023-04-28T05:04:44;5.60;;;2.85;;
27847;SDS011;15212;48.830;8.730;2023-04-28T05:07:12;6.95;;;3.37;;
27847;SDS011;15212;48.830;8.730;2023-04-28T05:09:41;5.85;;;3.15;;
27847;SDS011;15212;48.830;8.730;2023-04-28T05:12:09;5.03;;;3.12;;
27847;SDS011;15212;48.830;8.730;2023-04-28T05:14:38;5.87;;;2.90;;
27847;SDS011;15212;48.830;8.730;2023-04-28T05:17:06;7.80;;;3.05;;
27847;SDS011;15212;48.830;8.730;2023-04-28T05:19:34;4.20;;;2.50;;
27847;SDS011;15212;48.830;8.730;2023-04-28T05:22:03;4.78;;;2.85;;
27847;SDS011;15212;48.830;8.730;2023-04-28T05:24:32;5.60;;;2.65;;
27847;SDS011;15212;48.830;8.730;2023-04-28T05:27:00;6.58;;;3.00;;
27847;SDS011;15212;48.830;8.730;2023-04-28T05:29:28;6.45;;;3.10;;
27847;SDS011;15212;48.830;8.730;2023-04-28T05:31:57;3.87;;;2.62;;
27847;SDS011;15212;48.830;8.730;2023-04-28T05:34:25;4.40;;;2.70;;
27847;SDS011;15212;48.830;8.730;2023-04-28T05:36:54;8.23;;;2.85;;
27847;SDS011;15212;48.830;8.730;2023-04-28T05:39:22;5.03;;;2.47;;
27847;SDS011;15212;48.830;8.730;2023-04-28T05:41:51;4.12;;;2.70;;
27847;SDS011;15212;48.830;8.730;2023-04-28T05:44:19;7.17;;;3.25;;
27847;SDS011;15212;48.830;8.730;2023-04-28T05:46:47;5.10;;;2.80;;
27847;SDS011;15212;48.830;8.730;2023-04-28T05:49:16;4.40;;;2.72;;
27847;SDS011;15212;48.830;8.730;2023-04-28T05:51:44;5.75;;;3.27;;
27847;SDS011;15212;48.830;8.730;2023-04-28T05:54:13;8.05;;;3.10;;
27847;SDS011;15212;48.830;8.730;2023-04-28T05:56:41;4.40;;;2.92;;
27847;SDS011;15212;48.830;8.730;2023-04-28T05:59:09;4.03;;;2.75;;
27847;SDS011;15212;48.830;8.730;2023-04-28T06:01:38;4.78;;;2.67;;
27847;SDS011;15212;48.830;8.730;2023-04-28T06:04:06;4.45;;;2.70;;
27847;SDS011;15212;48.830;8.730;2023-04-28T06:06:34;8.30;;;2.90;;
27847;SDS011;15212;48.830;8.730;2023-04-28T06:09:03;5.72;;;2.87;;
27847;SDS011;15212;48.830;8.730;2023-04-28T06:11:31;6.20;;;2.77;;
27847;SDS011;15212;48.830;8.730;2023-04-28T06:14:00;6.15;;;2.62;;
27847;SDS011;15212;48.830;8.730;2023-04-28T06:16:28;4.15;;;2.98;;
27847;SDS011;15212;48.830;8.730;2023-04-28T06:18:57;3.72;;;2.58;;
27847;SDS011;15212;48.830;8.730;2023-04-28T06:21:25;5.67;;;3.10;;
27847;SDS011;15212;48.830;8.730;2023-04-28T06:23:54;7.75;;;3.25;;
27847;SDS011;15212;48.830;8.730;2023-04-28T06:26:22;7.55;;;2.80;;
27847;SDS011;15212;48.830;8.730;2023-04-28T06:28:51;5.97;;;3.10;;
27847;SDS011;15212;48.830;8.730;2023-04-28T06:31:19;6.95;;;2.77;;
27847;SDS011;15212;48.830;8.730;2023-04-28T06:33:48;5.40;;;3.02;;
27847;SDS011;15212;48.830;8.730;2023-04-28T06:36:16;4.47;;;3.02;;
27847;SDS011;15212;48.830;8.730;2023-04-28T06:38:45;6.30;;;3.20;;
27847;SDS011;15212;48.830;8.730;2023-04-28T06:41:13;5.70;;;2.90;;
27847;SDS011;15212;48.830;8.730;2023-04-28T06:43:42;4.08;;;3.02;;
27847;SDS011;15212;48.830;8.730;2023-04-28T06:46:10;7.08;;;3.00;;
27847;SDS011;15212;48.830;8.730;2023-04-28T06:48:39;5.72;;;2.87;;
27847;SDS011;15212;48.830;8.730;2023-04-28T06:51:07;6.42;;;3.12;;
27847;SDS011;15212;48.830;8.730;2023-04-28T06:53:35;4.83;;;2.90;;
27847;SDS011;15212;48.830;8.730;2023-04-28T06:56:04;5.17;;;2.83;;
27847;SDS011;15212;48.830;8.730;2023-04-28T06:58:33;5.25;;;2.75;;
27847;SDS011;15212;48.830;8.730;2023-04-28T07:01:01;5.75;;;3.08;;
27847;SDS011;15212;48.830;8.730;2023-04-28T07:03:30;4.45;;;2.95;;
27847;SDS011;15212;48.830;8.730;2023-04-28T07:05:58;5.03;;;2.98;;
27847;SDS011;15212;48.830;8.730;2023-04-28T07:08:28;6.60;;;3.00;;
27847;SDS011;15212;48.830;8.730;2023-04-28T07:10:56;4.15;;;2.80;;
27847;SDS011;15212;48.830;8.730;2023-04-28T07:13:27;6.17;;;3.50;;
27847;SDS011;15212;48.830;8.730;2023-04-28T07:15:56;6.30;;;3.33;;
27847;SDS011;15212;48.830;8.730;2023-04-28T07:18:24;5.95;;;3.10;;
27847;SDS011;15212;48.830;8.730;2023-04-28T07:20:54;3.95;;;3.15;;
27847;SDS011;15212;48.830;8.730;2023-04-28T07:23:22;5.62;;;3.25;;
27847;SDS011;15212;48.830;8.730;2023-04-28T07:25:51;4.47;;;3.10;;
27847;SDS011;15212;48.830;8.730;2023-04-28T07:28:19;5.45;;;2.95;;
27847;SDS011;15212;48.830;8.730;2023-04-28T07:30:47;5.42;;;3.30;;
27847;SDS011;15212;48.830;8.730;2023-04-28T07:33:16;4.83;;;3.12;;
27847;SDS011;15212;48.830;8.730;2023-04-28T07:35:44;4.15;;;3.05;;
27847;SDS011;15212;48.830;8.730;2023-04-28T07:38:14;7.50;;;3.15;;
27847;SDS011;15212;48.830;8.730;2023-04-28T07:40:43;4.30;;;3.20;;
27847;SDS011;15212;48.830;8.730;2023-04-28T07:43:11;5.12;;;2.92;;
27847;SDS011;15212;48.830;8.730;2023-04-28T07:45:40;5.62;;;3.60;;
27847;SDS011;15212;48.830;8.730;2023-04-28T07:48:10;4.12;;;3.20;;
27847;SDS011;15212;48.830;8.730;2023-04-28T07:50:38;5.83;;;3.37;;
27847;SDS011;15212;48.830;8.730;2023-04-28T07:53:07;4.85;;;2.80;;
27847;SDS011;15212;48.830;8.730;2023-04-28T07:55:36;6.83;;;3.00;;
27847;SDS011;15212;48.830;8.730;2023-04-28T07:58:06;4.78;;;3.22;;
27847;SDS011;15212;48.830;8.730;2023-04-28T08:00:35;4.72;;;2.62;;
27847;SDS011;15212;48.830;8.730;2023-04-28T08:03:03;5.22;;;3.52;;
27847;SDS011;15212;48.830;8.730;2023-04-28T08:05:32;4.45;;;3.22;;
27847;SDS011;15212;48.830;8.730;2023-04-28T08:08:00;7.40;;;3.05;;
27847;SDS011;15212;48.830;8.730;2023-04-28T08:10:28;4.17;;;2.60;;
27847;SDS011;15212;48.830;8.730;2023-04-28T08:12:57;2.20;;;1.55;;
27847;SDS011;15212;48.830;8.730;2023-04-28T08:15:25;2.77;;;2.00;;
27847;SDS011;15212;48.830;8.730;2023-04-28T08:17:54;3.52;;;2.20;;
27847;SDS011;15212;48.830;8.730;2023-04-28T08:20:22;12.58;;;2.42;;
27847;SDS011;15212;48.830;8.730;2023-04-28T08:22:50;3.77;;;2.35;;
27847;SDS011;15212;48.830;8.730;2023-04-28T08:25:19;10.40;;;2.65;;
27847;SDS011;15212;48.830;8.730;2023-04-28T08:27:47;3.10;;;1.90;;
27847;SDS011;15212;48.830;8.730;2023-04-28T08:30:16;2.58;;;1.45;;
27847;SDS011;15212;48.830;8.730;2023-04-28T08:32:44;1.40;;;1.30;;
27847;SDS011;15212;48.830;8.730;2023-04-28T08:35:13;1.50;;;1.25;;
27847;SDS011;15212;48.830;8.730;2023-04-28T08:37:42;1.67;;;1.40;;
27847;SDS011;15212;48.830;8.730;2023-04-28T08:40:10;2.45;;;1.77;;
27847;SDS011;15212;48.830;8.730;2023-04-28T08:42:39;2.25;;;1.80;;
27847;SDS011;15212;48.830;8.730;2023-04-28T08:45:12;2.05;;;1.65;;
27847;SDS011;15212;48.830;8.730;2023-04-28T08:47:40;1.92;;;1.00;;
27847;SDS011;15212;48.830;8.730;2023-04-28T08:50:13;1.32;;;1.17;;
27847;SDS011;15212;48.830;8.730;2023-04-28T08:52:42;2.62;;;1.27;;
27847;SDS011;15212;48.830;8.730;2023-04-28T08:55:11;1.35;;;0.80;;
27847;SDS011;15212;48.830;8.730;2023-04-28T08:57:44;1.37;;;0.60;;
27847;SDS011;15212;48.830;8.730;2023-04-28T09:00:16;1.27;;;0.75;;
27847;SDS011;15212;48.830;8.730;2023-04-28T09:02:45;1.02;;;0.80;;
27847;SDS011;15212;48.830;8.730;2023-04-28T09:05:13;1.37;;;1.00;;
27847;SDS011;15212;48.830;8.730;2023-04-28T09:07:44;1.20;;;0.80;;
27847;SDS011;15212;48.830;8.730;2023-04-28T09:10:22;1.40;;;1.10;;
27847;SDS011;15212;48.830;8.730;2023-04-28T09:12:53;1.02;;;0.90;;
27847;SDS011;15212;48.830;8.730;2023-04-28T09:15:32;0.80;;;0.80;;
27847;SDS011;15212;48.830;8.730;2023-04-28T09:18:06;1.07;;;0.98;;
27847;SDS011;15212;48.830;8.730;2023-04-28T09:20:35;1.60;;;0.90;;
27847;SDS011;15212;48.830;8.730;2023-04-28T09:23:13;0.78;;;0.68;;
27847;SDS011;15212;48.830;8.730;2023-04-28T09:25:58;0.80;;;0.80;;
27847;SDS011;15212;48.830;8.730;2023-04-28T09:28:33;2.05;;;0.85;;
27847;SDS011;15212;48.830;8.730;2023-04-28T09:31:02;0.85;;;0.78;;
27847;SDS011;15212;48.830;8.730;2023-04-28T09:33:30;0.80;;;0.80;;
27847;SDS011;15212;48.830;8.730;2023-04-28T09:35:59;0.85;;;0.85;;
27847;SDS011;15212;48.830;8.730;2023-04-28T09:38:28;2.20;;;0.65;;
27847;SDS011;15212;48.830;8.730;2023-04-28T09:40:57;1.05;;;0.70;;
27847;SDS011;15212;48.830;8.730;2023-04-28T09:43:38;0.75;;;0.70;;
27847;SDS011;15212;48.830;8.730;2023-04-28T09:46:03;0.68;;;0.68;;
27847;SDS011;15212;48.830;8.730;2023-04-28T09:48:37;0.68;;;0.60;;
27847;SDS011;15212;48.830;8.730;2023-04-28T09:51:04;2.12;;;0.72;;
27847;SDS011;15212;48.830;8.730;2023-04-28T09:53:33;1.40;;;0.60;;
27847;SDS011;15212;48.830;8.730;2023-04-28T09:56:02;1.37;;;0.70;;
27847;SDS011;15212;48.830;8.730;2023-04-28T09:58:31;1.17;;;0.70;;
27847;SDS011;15212;48.830;8.730;2023-04-28T10:01:01;0.55;;;0.53;;
27847;SDS011;15212;48.830;8.730;2023-04-28T10:03:32;1.92;;;0.65;;
27847;SDS011;15212;48.830;8.730;2023-04-28T10:06:01;0.82;;;0.80;;
27847;SDS011;15212;48.830;8.730;2023-04-28T10:08:30;1.40;;;0.70;;
27847;SDS011;15212;48.830;8.730;2023-04-28T10:10:59;0.80;;;0.60;;
27847;SDS011;15212;48.830;8.730;2023-04-28T10:13:27;1.45;;;0.70;;
27847;SDS011;15212;48.830;8.730;2023-04-28T10:15:57;0.90;;;0.60;;
27847;SDS011;15212;48.830;8.730;2023-04-28T10:18:26;1.05;;;0.57;;
27847;SDS011;15212;48.830;8.730;2023-04-28T10:20:57;0.60;;;0.60;;
27847;SDS011;15212;48.830;8.730;2023-04-28T10:26:19;1.22;;;0.70;;
27847;SDS011;15212;48.830;8.730;2023-04-28T10:28:49;0.88;;;0.60;;
27847;SDS011;15212;48.830;8.730;2023-04-28T10:31:18;2.47;;;0.75;;
27847;SDS011;15212;48.830;8.730;2023-04-28T10:33:48;0.75;;;0.62;;
27847;SDS011;15212;48.830;8.730;2023-04-28T10:39:15;1.37;;;0.60;;
27847;SDS011;15212;48.830;8.730;2023-04-28T10:41:47;0.50;;;0.50;;
27847;SDS011;15212;48.830;8.730;2023-04-28T10:47:04;0.90;;;0.60;;
27847;SDS011;15212;48.830;8.730;2023-04-28T10:55:29;1.17;;;0.70;;
27847;SDS011;15212;48.830;8.730;2023-04-28T11:00:47;0.62;;;0.60;;
27847;SDS011;15212;48.830;8.730;2023-04-28T11:06:22;0.80;;;0.60;;
27847;SDS011;15212;48.830;8.730;2023-04-28T11:09:00;1.00;;;0.50;;
27847;SDS011;15212;48.830;8.730;2023-04-28T11:14:40;0.70;;;0.60;;
27847;SDS011;15212;48.830;8.730;2023-04-28T11:17:11;1.80;;;0.70;;
27847;SDS011;15212;48.830;8.730;2023-04-28T11:22:15;1.12;;;0.70;;
27847;SDS011;15212;48.830;8.730;2023-04-28T11:24:56;1.05;;;0.70;;
27847;SDS011;15212;48.830;8.730;2023-04-28T11:27:28;1.25;;;0.60;;
27847;SDS011;15212;48.830;8.730;2023-04-28T11:29:58;0.80;;;0.70;;
27847;SDS011;15212;48.830;8.730;2023-04-28T11:32:27;0.62;;;0.60;;
27847;SDS011;15212;48.830;8.730;2023-04-28T11:34:59;0.88;;;0.60;;
27847;SDS011;15212;48.830;8.730;2023-04-28T11:37:29;1.90;;;0.60;;
27847;SDS011;15212;48.830;8.730;2023-04-28T11:39:57;1.12;;;0.75;;
27847;SDS011;15212;48.830;8.730;2023-04-28T11:42:30;2.15;;;0.80;;
27847;SDS011;15212;48.830;8.730;2023-04-28T11:44:58;1.20;;;0.82;;
27847;SDS011;15212;48.830;8.730;2023-04-28T11:47:31;1.27;;;0.80;;
27847;SDS011;15212;48.830;8.730;2023-04-28T11:50:01;2.47;;;0.80;;
27847;SDS011;15212;48.830;8.730;2023-04-28T11:52:30;1.07;;;0.70;;
27847;SDS011;15212;48.830;8.730;2023-04-28T11:54:58;0.90;;;0.85;;
27847;SDS011;15212;48.830;8.730;2023-04-28T11:57:27;1.07;;;0.80;;
27847;SDS011;15212;48.830;8.730;2023-04-28T12:00:11;2.05;;;0.60;;
27847;SDS011;15212;48.830;8.730;2023-04-28T12:02:45;0.65;;;0.60;;
27847;SDS011;15212;48.830;8.730;2023-04-28T12:05:14;1.37;;;1.00;;
27847;SDS011;15212;48.830;8.730;2023-04-28T12:07:42;2.55;;;0.70;;
27847;SDS011;15212;48.830;8.730;2023-04-28T12:10:12;0.57;;;0.50;;
27847;SDS011;15212;48.830;8.730;2023-04-28T12:12:41;1.87;;;0.88;;
27847;SDS011;15212;48.830;8.730;2023-04-28T12:15:12;1.17;;;0.80;;
27847;SDS011;15212;48.830;8.730;2023-04-28T12:17:40;1.60;;;0.70;;
27847;SDS011;15212;48.830;8.730;2023-04-28T12:20:10;1.57;;;0.90;;
27847;SDS011;15212;48.830;8.730;2023-04-28T12:23:00;1.05;;;0.50;;
27847;SDS011;15212;48.830;8.730;2023-04-28T12:25:28;1.17;;;0.68;;
27847;SDS011;15212;48.830;8.730;2023-04-28T12:28:02;0.72;;;0.60;;
27847;SDS011;15212;48.830;8.730;2023-04-28T12:30:34;0.65;;;0.60;;
27847;SDS011;15212;48.830;8.730;2023-04-28T12:33:26;1.87;;;0.60;;
27847;SDS011;15212;48.830;8.730;2023-04-28T12:35:52;0.72;;;0.50;;
27847;SDS011;15212;48.830;8.730;2023-04-28T12:38:24;2.47;;;0.50;;
27847;SDS011;15212;48.830;8.730;2023-04-28T12:40:53;0.90;;;0.70;;
27847;SDS011;15212;48.830;8.730;2023-04-28T12:43:22;2.10;;;0.40;;
27847;SDS011;15212;48.830;8.730;2023-04-28T12:45:53;1.15;;;0.70;;
27847;SDS011;15212;48.830;8.730;2023-04-28T12:48:21;2.27;;;0.50;;
27847;SDS011;15212;48.830;8.730;2023-04-28T12:50:50;1.55;;;0.75;;
27847;SDS011;15212;48.830;8.730;2023-04-28T12:53:18;0.65;;;0.40;;
27847;SDS011;15212;48.830;8.730;2023-04-28T12:55:47;0.72;;;0.50;;
27847;SDS011;15212;48.830;8.730;2023-04-28T12:58:15;3.52;;;0.60;;
27847;SDS011;15212;48.830;8.730;2023-04-28T13:00:43;1.02;;;0.60;;
27847;SDS011;15212;48.830;8.730;2023-04-28T13:03:12;1.52;;;0.50;;
27847;SDS011;15212;48.830;8.730;2023-04-28T13:05:40;1.20;;;0.57;;
27847;SDS011;15212;48.830;8.730;2023-04-28T13:08:09;0.50;;;0.40;;
27847;SDS011;15212;48.830;8.730;2023-04-28T13:10:39;0.70;;;0.50;;
27847;SDS011;15212;48.830;8.730;2023-04-28T13:13:07;0.55;;;0.45;;
27847;SDS011;15212;48.830;8.730;2023-04-28T13:15:36;0.60;;;0.40;;
27847;SDS011;15212;48.830;8.730;2023-04-28T13:18:05;1.02;;;0.40;;
27847;SDS011;15212;48.830;8.730;2023-04-28T13:20:33;0.62;;;0.40;;
27847;SDS011;15212;48.830;8.730;2023-04-28T13:23:02;0.60;;;0.30;;
27847;SDS011;15212;48.830;8.730;2023-04-28T13:25:30;0.40;;;0.40;;
27847;SDS011;15212;48.830;8.730;2023-04-28T13:27:59;1.37;;;0.45;;
27847;SDS011;15212;48.830;8.730;2023-04-28T13:30:27;0.50;;;0.30;;
27847;SDS011;15212;48.830;8.730;2023-04-28T13:32:56;2.35;;;0.60;;
27847;SDS011;15212;48.830;8.730;2023-04-28T13:35:24;0.50;;;0.50;;
27847;SDS011;15212;48.830;8.730;2023-04-28T13:37:53;1.95;;;0.40;;
27847;SDS011;15212;48.830;8.730;2023-04-28T13:40:23;0.80;;;0.50;;
27847;SDS011;15212;48.830;8.730;2023-04-28T13:42:51;2.00;;;0.60;;
27847;SDS011;15212;48.830;8.730;2023-04-28T13:45:20;0.68;;;0.30;;
27847;SDS011;15212;48.830;8.730;2023-04-28T13:47:49;2.83;;;0.88;;
27847;SDS011;15212;48.830;8.730;2023-04-28T13:50:17;0.85;;;0.40;;
27847;SDS011;15212;48.830;8.730;2023-04-28T13:52:45;0.53;;;0.40;;
27847;SDS011;15212;48.830;8.730;2023-04-28T13:55:14;0.60;;;0.30;;
27847;SDS011;15212;48.830;8.730;2023-04-28T13:57:42;0.65;;;0.40;;
27847;SDS011;15212;48.830;8.730;2023-04-28T14:00:11;0.78;;;0.30;;
27847;SDS011;15212;48.830;8.730;2023-04-28T14:02:40;1.27;;;0.30;;
27847;SDS011;15212;48.830;8.730;2023-04-28T14:05:09;0.45;;;0.30;;
27847;SDS011;15212;48.830;8.730;2023-04-28T14:07:37;0.37;;;0.37;;
27847;SDS011;15212;48.830;8.730;2023-04-28T14:10:06;0.75;;;0.33;;
27847;SDS011;15212;48.830;8.730;2023-04-28T14:12:35;0.30;;;0.30;;
27847;SDS011;15212;48.830;8.730;2023-04-28T14:15:04;1.92;;;0.42;;
27847;SDS011;15212;48.830;8.730;2023-04-28T14:17:33;0.23;;;0.23;;
27847;SDS011;15212;48.830;8.730;2023-04-28T14:20:02;0.35;;;0.30;;
27847;SDS011;15212;48.830;8.730;2023-04-28T14:22:32;1.65;;;0.30;;
27847;SDS011;15212;48.830;8.730;2023-04-28T14:25:00;0.45;;;0.30;;
27847;SDS011;15212;48.830;8.730;2023-04-28T14:27:28;0.20;;;0.20;;
27847;SDS011;15212;48.830;8.730;2023-04-28T14:29:58;0.78;;;0.50;;
27847;SDS011;15212;48.830;8.730;2023-04-28T14:32:27;0.35;;;0.35;;
27847;SDS011;15212;48.830;8.730;2023-04-28T14:34:55;0.30;;;0.30;;
27847;SDS011;15212;48.830;8.730;2023-04-28T14:37:24;0.62;;;0.40;;
27847;SDS011;15212;48.830;8.730;2023-04-28T14:39:53;0.85;;;0.30;;
27847;SDS011;15212;48.830;8.730;2023-04-28T14:42:26;1.17;;;0.50;;
27847;SDS011;15212;48.830;8.730;2023-04-28T14:44:56;2.15;;;0.40;;
27847;SDS011;15212;48.830;8.730;2023-04-28T14:47:25;0.68;;;0.50;;
27847;SDS011;15212;48.830;8.730;2023-04-28T14:49:53;0.60;;;0.40;;
27847;SDS011;15212;48.830;8.730;2023-04-28T14:52:22;0.35;;;0.20;;
27847;SDS011;15212;48.830;8.730;2023-04-28T14:54:56;0.68;;;0.33;;
27847;SDS011;15212;48.830;8.730;2023-04-28T14:57:27;0.57;;;0.30;;
27847;SDS011;15212;48.830;8.730;2023-04-28T14:59:56;1.32;;;0.40;;
27847;SDS011;15212;48.830;8.730;2023-04-28T15:02:24;0.30;;;0.23;;
27847;SDS011;15212;48.830;8.730;2023-04-28T15:04:54;0.72;;;0.20;;
27847;SDS011;15212;48.830;8.730;2023-04-28T15:07:23;0.30;;;0.30;;
27847;SDS011;15212;48.830;8.730;2023-04-28T15:09:57;0.33;;;0.20;;
27847;SDS011;15212;48.830;8.730;2023-04-28T15:12:26;0.20;;;0.20;;
27847;SDS011;15212;48.830;8.730;2023-04-28T15:14:58;0.20;;;0.20;;
27847;SDS011;15212;48.830;8.730;2023-04-28T15:17:27;1.35;;;0.30;;
27847;SDS011;15212;48.830;8.730;2023-04-28T15:19:55;1.55;;;0.20;;
27847;SDS011;15212;48.830;8.730;2023-04-28T15:22:23;0.30;;;0.13;;
27847;SDS011;15212;48.830;8.730;2023-04-28T15:24:52;0.20;;;0.20;;
27847;SDS011;15212;48.830;8.730;2023-04-28T15:27:20;0.42;;;0.30;;
27847;SDS011;15212;48.830;8.730;2023-04-28T15:29:49;0.30;;;0.30;;